sensor_id;sensor_type;location;lat;lon;timestamp;P1;durP1;ratioP1;P2;durP2;ratioP2
75311;SDS011;63906;55.686;37.532;2023-08-24T00:02:41;8.25;;;6.18;;
75311;SDS011;63906;55.686;37.532;2023-08-24T00:07:42;7.20;;;5.70;;
75311;SDS011;63906;55.686;37.532;2023-08-24T00:12:43;8.55;;;6.05;;
75311;SDS011;63906;55.686;37.532;2023-08-24T00:17:43;7.22;;;5.50;;
75311;SDS011;63906;55.686;37.532;2023-08-24T00:22:44;9.50;;;5.70;;
75311;SDS011;63906;55.686;37.532;2023-08-24T00:27:44;7.65;;;5.93;;
75311;SDS011;63906;55.686;37.532;2023-08-24T00:32:45;7.28;;;4.90;;
75311;SDS011;63906;55.686;37.532;2023-08-24T00:37:46;8.48;;;5.57;;
75311;SDS011;63906;55.686;37.532;2023-08-24T00:42:47;8.35;;;5.53;;
75311;SDS011;63906;55.686;37.532;2023-08-24T00:47:47;7.95;;;4.75;;
75311;SDS011;63906;55.686;37.532;2023-08-24T00:52:48;8.15;;;5.43;;
75311;SDS011;63906;55.686;37.532;2023-08-24T00:57:49;6.90;;;4.45;;
75311;SDS011;63906;55.686;37.532;2023-08-24T01:02:51;6.47;;;4.70;;
75311;SDS011;63906;55.686;37.532;2023-08-24T01:07:52;8.05;;;5.60;;
75311;SDS011;63906;55.686;37.532;2023-08-24T01:18:11;7.43;;;4.80;;
75311;SDS011;63906;55.686;37.532;2023-08-24T01:28:21;6.47;;;4.68;;
75311;SDS011;63906;55.686;37.532;2023-08-24T01:33:28;6.57;;;4.50;;
75311;SDS011;63906;55.686;37.532;2023-08-24T01:38:31;6.03;;;4.32;;
75311;SDS011;63906;55.686;37.532;2023-08-24T01:43:46;5.72;;;4.22;;
75311;SDS011;63906;55.686;37.532;2023-08-24T01:48:52;5.70;;;3.63;;
75311;SDS011;63906;55.686;37.532;2023-08-24T01:53:54;5.53;;;3.63;;
75311;SDS011;63906;55.686;37.532;2023-08-24T01:58:57;4.10;;;3.17;;
75311;SDS011;63906;55.686;37.532;2023-08-24T02:03:58;4.97;;;3.47;;
75311;SDS011;63906;55.686;37.532;2023-08-24T02:08:59;6.30;;;3.72;;
75311;SDS011;63906;55.686;37.532;2023-08-24T02:14:00;5.00;;;2.90;;
75311;SDS011;63906;55.686;37.532;2023-08-24T02:19:01;4.00;;;3.10;;
75311;SDS011;63906;55.686;37.532;2023-08-24T02:24:01;3.88;;;3.05;;
75311;SDS011;63906;55.686;37.532;2023-08-24T02:29:02;4.88;;;3.08;;
75311;SDS011;63906;55.686;37.532;2023-08-24T02:34:02;3.95;;;2.95;;
75311;SDS011;63906;55.686;37.532;2023-08-24T02:39:03;3.97;;;2.80;;
75311;SDS011;63906;55.686;37.532;2023-08-24T02:44:05;3.72;;;2.72;;
75311;SDS011;63906;55.686;37.532;2023-08-24T02:49:05;4.03;;;3.08;;
75311;SDS011;63906;55.686;37.532;2023-08-24T02:54:06;4.47;;;3.20;;
75311;SDS011;63906;55.686;37.532;2023-08-24T02:59:06;3.85;;;2.70;;
75311;SDS011;63906;55.686;37.532;2023-08-24T03:04:07;3.67;;;3.13;;
75311;SDS011;63906;55.686;37.532;2023-08-24T03:09:08;4.05;;;2.80;;
75311;SDS011;63906;55.686;37.532;2023-08-24T03:14:08;4.07;;;2.80;;
75311;SDS011;63906;55.686;37.532;2023-08-24T03:19:09;4.28;;;3.30;;
75311;SDS011;63906;55.686;37.532;2023-08-24T03:24:09;3.47;;;2.42;;
75311;SDS011;63906;55.686;37.532;2023-08-24T03:29:11;5.82;;;3.33;;
75311;SDS011;63906;55.686;37.532;2023-08-24T03:34:11;4.18;;;3.65;;
75311;SDS011;63906;55.686;37.532;2023-08-24T03:39:12;3.90;;;3.35;;
75311;SDS011;63906;55.686;37.532;2023-08-24T03:44:13;4.10;;;3.00;;
75311;SDS011;63906;55.686;37.532;2023-08-24T03:49:14;2.88;;;2.50;;
75311;SDS011;63906;55.686;37.532;2023-08-24T03:54:15;3.85;;;2.90;;
75311;SDS011;63906;55.686;37.532;2023-08-24T03:59:15;4.93;;;2.90;;
75311;SDS011;63906;55.686;37.532;2023-08-24T04:04:16;4.68;;;3.35;;
75311;SDS011;63906;55.686;37.532;2023-08-24T04:09:16;4.50;;;2.78;;
75311;SDS011;63906;55.686;37.532;2023-08-24T04:14:17;3.35;;;2.70;;
75311;SDS011;63906;55.686;37.532;2023-08-24T04:19:18;3.50;;;2.63;;
75311;SDS011;63906;55.686;37.532;2023-08-24T04:24:18;2.67;;;2.10;;
75311;SDS011;63906;55.686;37.532;2023-08-24T04:29:19;2.42;;;2.13;;
75311;SDS011;63906;55.686;37.532;2023-08-24T04:34:20;2.50;;;1.95;;
75311;SDS011;63906;55.686;37.532;2023-08-24T04:39:20;3.92;;;2.50;;
75311;SDS011;63906;55.686;37.532;2023-08-24T04:44:21;3.45;;;2.40;;
75311;SDS011;63906;55.686;37.532;2023-08-24T04:49:21;3.50;;;2.80;;
75311;SDS011;63906;55.686;37.532;2023-08-24T04:54:22;3.73;;;2.80;;
75311;SDS011;63906;55.686;37.532;2023-08-24T04:59:22;4.30;;;3.22;;
75311;SDS011;63906;55.686;37.532;2023-08-24T05:04:23;6.25;;;3.63;;
75311;SDS011;63906;55.686;37.532;2023-08-24T05:09:23;5.47;;;4.03;;
75311;SDS011;63906;55.686;37.532;2023-08-24T05:14:24;4.78;;;3.60;;
75311;SDS011;63906;55.686;37.532;2023-08-24T05:19:24;4.63;;;3.60;;
75311;SDS011;63906;55.686;37.532;2023-08-24T05:24:25;6.20;;;3.77;;
75311;SDS011;63906;55.686;37.532;2023-08-24T05:29:25;6.65;;;4.80;;
75311;SDS011;63906;55.686;37.532;2023-08-24T05:34:28;6.15;;;4.90;;
75311;SDS011;63906;55.686;37.532;2023-08-24T05:39:29;7.70;;;5.67;;
75311;SDS011;63906;55.686;37.532;2023-08-24T05:44:29;6.60;;;5.30;;
75311;SDS011;63906;55.686;37.532;2023-08-24T05:49:30;7.20;;;5.50;;
75311;SDS011;63906;55.686;37.532;2023-08-24T05:54:30;6.53;;;4.53;;
75311;SDS011;63906;55.686;37.532;2023-08-24T05:59:33;5.40;;;4.13;;
75311;SDS011;63906;55.686;37.532;2023-08-24T06:04:33;5.10;;;3.75;;
75311;SDS011;63906;55.686;37.532;2023-08-24T06:09:34;6.90;;;4.47;;
75311;SDS011;63906;55.686;37.532;2023-08-24T06:14:34;7.13;;;5.40;;
75311;SDS011;63906;55.686;37.532;2023-08-24T06:19:35;9.77;;;6.97;;
75311;SDS011;63906;55.686;37.532;2023-08-24T06:24:35;14.02;;;8.60;;
75311;SDS011;63906;55.686;37.532;2023-08-24T06:29:36;13.93;;;9.40;;
75311;SDS011;63906;55.686;37.532;2023-08-24T06:34:36;11.77;;;7.80;;
75311;SDS011;63906;55.686;37.532;2023-08-24T06:39:37;9.50;;;7.23;;
75311;SDS011;63906;55.686;37.532;2023-08-24T06:44:37;9.87;;;6.87;;
75311;SDS011;63906;55.686;37.532;2023-08-24T06:49:38;11.23;;;7.05;;
75311;SDS011;63906;55.686;37.532;2023-08-24T06:54:38;9.37;;;6.87;;
75311;SDS011;63906;55.686;37.532;2023-08-24T06:59:39;10.20;;;6.65;;
75311;SDS011;63906;55.686;37.532;2023-08-24T07:04:40;9.38;;;5.75;;
75311;SDS011;63906;55.686;37.532;2023-08-24T07:09:40;7.97;;;5.88;;
75311;SDS011;63906;55.686;37.532;2023-08-24T07:14:41;9.63;;;6.97;;
75311;SDS011;63906;55.686;37.532;2023-08-24T07:19:41;9.95;;;7.28;;
75311;SDS011;63906;55.686;37.532;2023-08-24T07:24:42;10.63;;;7.17;;
75311;SDS011;63906;55.686;37.532;2023-08-24T07:29:42;10.40;;;7.25;;
75311;SDS011;63906;55.686;37.532;2023-08-24T07:34:43;11.50;;;7.45;;
75311;SDS011;63906;55.686;37.532;2023-08-24T07:39:43;9.47;;;6.77;;
75311;SDS011;63906;55.686;37.532;2023-08-24T07:44:44;9.77;;;7.20;;
75311;SDS011;63906;55.686;37.532;2023-08-24T07:49:44;10.83;;;7.87;;
75311;SDS011;63906;55.686;37.532;2023-08-24T07:54:45;10.02;;;7.00;;
75311;SDS011;63906;55.686;37.532;2023-08-24T07:59:45;10.18;;;6.80;;
75311;SDS011;63906;55.686;37.532;2023-08-24T08:04:46;8.90;;;6.33;;
75311;SDS011;63906;55.686;37.532;2023-08-24T08:09:46;9.87;;;6.77;;
75311;SDS011;63906;55.686;37.532;2023-08-24T08:14:47;11.47;;;7.23;;
75311;SDS011;63906;55.686;37.532;2023-08-24T08:19:47;10.13;;;7.15;;
75311;SDS011;63906;55.686;37.532;2023-08-24T08:24:48;10.40;;;7.25;;
75311;SDS011;63906;55.686;37.532;2023-08-24T08:29:50;11.55;;;7.68;;
75311;SDS011;63906;55.686;37.532;2023-08-24T08:34:50;12.07;;;8.15;;
75311;SDS011;63906;55.686;37.532;2023-08-24T08:39:51;14.20;;;8.67;;
75311;SDS011;63906;55.686;37.532;2023-08-24T08:44:51;13.97;;;9.13;;
75311;SDS011;63906;55.686;37.532;2023-08-24T08:49:55;14.52;;;9.07;;
75311;SDS011;63906;55.686;37.532;2023-08-24T08:54:56;12.18;;;8.60;;
75311;SDS011;63906;55.686;37.532;2023-08-24T08:59:58;11.68;;;7.90;;
75311;SDS011;63906;55.686;37.532;2023-08-24T09:04:59;9.57;;;7.07;;
75311;SDS011;63906;55.686;37.532;2023-08-24T09:09:59;10.82;;;7.90;;
75311;SDS011;63906;55.686;37.532;2023-08-24T09:15:03;15.38;;;9.07;;
75311;SDS011;63906;55.686;37.532;2023-08-24T09:20:06;11.00;;;8.52;;
75311;SDS011;63906;55.686;37.532;2023-08-24T09:25:10;13.68;;;9.38;;
75311;SDS011;63906;55.686;37.532;2023-08-24T09:30:11;10.20;;;8.15;;
75311;SDS011;63906;55.686;37.532;2023-08-24T09:35:11;14.63;;;9.93;;
75311;SDS011;63906;55.686;37.532;2023-08-24T09:40:13;14.02;;;9.63;;
75311;SDS011;63906;55.686;37.532;2023-08-24T09:45:13;12.00;;;8.80;;
75311;SDS011;63906;55.686;37.532;2023-08-24T09:50:15;10.48;;;8.05;;
75311;SDS011;63906;55.686;37.532;2023-08-24T09:55:17;12.15;;;7.80;;
75311;SDS011;63906;55.686;37.532;2023-08-24T10:00:22;12.25;;;7.80;;
75311;SDS011;63906;55.686;37.532;2023-08-24T10:05:24;10.63;;;7.53;;
75311;SDS011;63906;55.686;37.532;2023-08-24T10:10:29;9.48;;;6.90;;
75311;SDS011;63906;55.686;37.532;2023-08-24T10:15:32;11.20;;;7.68;;
75311;SDS011;63906;55.686;37.532;2023-08-24T10:20:34;10.27;;;7.70;;
75311;SDS011;63906;55.686;37.532;2023-08-24T10:25:35;10.77;;;7.85;;
75311;SDS011;63906;55.686;37.532;2023-08-24T10:35:39;9.60;;;7.10;;
75311;SDS011;63906;55.686;37.532;2023-08-24T10:40:41;9.40;;;7.65;;
75311;SDS011;63906;55.686;37.532;2023-08-24T10:46:00;8.63;;;6.25;;
75311;SDS011;63906;55.686;37.532;2023-08-24T10:51:17;9.43;;;7.53;;
75311;SDS011;63906;55.686;37.532;2023-08-24T10:56:24;10.30;;;7.05;;
75311;SDS011;63906;55.686;37.532;2023-08-24T11:01:30;10.05;;;7.60;;
75311;SDS011;63906;55.686;37.532;2023-08-24T11:11:58;8.27;;;6.82;;
75311;SDS011;63906;55.686;37.532;2023-08-24T11:17:01;7.72;;;6.05;;
75311;SDS011;63906;55.686;37.532;2023-08-24T11:22:18;6.18;;;5.47;;
75311;SDS011;63906;55.686;37.532;2023-08-24T11:27:20;6.90;;;5.00;;
75311;SDS011;63906;55.686;37.532;2023-08-24T11:32:21;5.25;;;4.22;;
75311;SDS011;63906;55.686;37.532;2023-08-24T11:37:21;5.95;;;4.35;;
75311;SDS011;63906;55.686;37.532;2023-08-24T11:42:22;3.67;;;3.15;;
75311;SDS011;63906;55.686;37.532;2023-08-24T11:47:22;3.78;;;2.90;;
75311;SDS011;63906;55.686;37.532;2023-08-24T11:52:24;3.97;;;2.90;;
75311;SDS011;63906;55.686;37.532;2023-08-24T11:57:24;5.45;;;3.30;;
75311;SDS011;63906;55.686;37.532;2023-08-24T12:02:26;3.35;;;2.88;;
75311;SDS011;63906;55.686;37.532;2023-08-24T12:07:28;3.28;;;2.65;;
75311;SDS011;63906;55.686;37.532;2023-08-24T12:12:28;4.53;;;3.00;;
75311;SDS011;63906;55.686;37.532;2023-08-24T12:17:29;3.97;;;3.05;;
75311;SDS011;63906;55.686;37.532;2023-08-24T12:22:29;5.18;;;2.90;;
75311;SDS011;63906;55.686;37.532;2023-08-24T12:27:30;3.55;;;3.13;;
75311;SDS011;63906;55.686;37.532;2023-08-24T12:32:43;5.20;;;3.45;;
75311;SDS011;63906;55.686;37.532;2023-08-24T12:37:44;3.58;;;3.10;;
75311;SDS011;63906;55.686;37.532;2023-08-24T12:42:45;3.53;;;3.08;;
75311;SDS011;63906;55.686;37.532;2023-08-24T12:47:45;2.80;;;2.53;;
75311;SDS011;63906;55.686;37.532;2023-08-24T12:52:46;3.40;;;2.77;;
75311;SDS011;63906;55.686;37.532;2023-08-24T12:57:46;2.67;;;2.47;;
75311;SDS011;63906;55.686;37.532;2023-08-24T13:02:50;3.40;;;2.63;;
75311;SDS011;63906;55.686;37.532;2023-08-24T13:07:50;2.75;;;2.08;;
75311;SDS011;63906;55.686;37.532;2023-08-24T13:12:51;3.38;;;2.38;;
75311;SDS011;63906;55.686;37.532;2023-08-24T13:17:52;2.50;;;1.95;;
75311;SDS011;63906;55.686;37.532;2023-08-24T13:22:52;2.20;;;1.87;;
75311;SDS011;63906;55.686;37.532;2023-08-24T13:27:53;2.00;;;1.67;;
75311;SDS011;63906;55.686;37.532;2023-08-24T13:32:56;1.60;;;1.40;;
75311;SDS011;63906;55.686;37.532;2023-08-24T13:37:56;2.25;;;1.42;;
75311;SDS011;63906;55.686;37.532;2023-08-24T13:43:00;1.30;;;1.20;;
75311;SDS011;63906;55.686;37.532;2023-08-24T13:48:00;1.63;;;1.33;;
75311;SDS011;63906;55.686;37.532;2023-08-24T13:53:01;1.88;;;1.30;;
75311;SDS011;63906;55.686;37.532;2023-08-24T13:58:02;1.58;;;1.20;;
75311;SDS011;63906;55.686;37.532;2023-08-24T14:03:03;1.80;;;1.67;;
75311;SDS011;63906;55.686;37.532;2023-08-24T14:08:04;1.88;;;1.30;;
75311;SDS011;63906;55.686;37.532;2023-08-24T14:13:05;2.40;;;1.55;;
75311;SDS011;63906;55.686;37.532;2023-08-24T14:18:05;1.80;;;1.52;;
75311;SDS011;63906;55.686;37.532;2023-08-24T14:23:06;1.77;;;1.10;;
75311;SDS011;63906;55.686;37.532;2023-08-24T14:28:06;1.63;;;1.50;;
75311;SDS011;63906;55.686;37.532;2023-08-24T14:33:07;1.63;;;1.25;;
75311;SDS011;63906;55.686;37.532;2023-08-24T14:38:07;2.17;;;1.50;;
75311;SDS011;63906;55.686;37.532;2023-08-24T14:43:10;1.60;;;1.30;;
75311;SDS011;63906;55.686;37.532;2023-08-24T14:48:11;1.98;;;1.30;;
75311;SDS011;63906;55.686;37.532;2023-08-24T14:53:11;1.70;;;1.35;;
75311;SDS011;63906;55.686;37.532;2023-08-24T14:58:12;2.20;;;1.40;;
75311;SDS011;63906;55.686;37.532;2023-08-24T15:03:13;3.77;;;1.70;;
75311;SDS011;63906;55.686;37.532;2023-08-24T15:08:13;2.40;;;1.83;;
75311;SDS011;63906;55.686;37.532;2023-08-24T15:13:14;3.05;;;1.60;;
75311;SDS011;63906;55.686;37.532;2023-08-24T15:18:15;2.47;;;1.55;;
75311;SDS011;63906;55.686;37.532;2023-08-24T15:23:27;2.28;;;1.55;;
75311;SDS011;63906;55.686;37.532;2023-08-24T15:28:36;1.65;;;1.42;;
75311;SDS011;63906;55.686;37.532;2023-08-24T15:33:57;2.17;;;1.50;;
75311;SDS011;63906;55.686;37.532;2023-08-24T15:38:58;1.67;;;1.50;;
75311;SDS011;63906;55.686;37.532;2023-08-24T15:43:58;2.03;;;1.80;;
75311;SDS011;63906;55.686;37.532;2023-08-24T15:48:59;2.70;;;1.40;;
75311;SDS011;63906;55.686;37.532;2023-08-24T15:53:59;2.17;;;1.50;;
75311;SDS011;63906;55.686;37.532;2023-08-24T15:59:00;2.15;;;1.27;;
75311;SDS011;63906;55.686;37.532;2023-08-24T16:04:01;2.30;;;1.27;;
75311;SDS011;63906;55.686;37.532;2023-08-24T16:09:02;1.48;;;1.13;;
75311;SDS011;63906;55.686;37.532;2023-08-24T16:14:04;1.90;;;1.15;;
75311;SDS011;63906;55.686;37.532;2023-08-24T16:19:04;1.50;;;1.10;;
75311;SDS011;63906;55.686;37.532;2023-08-24T16:24:05;2.67;;;1.73;;
75311;SDS011;63906;55.686;37.532;2023-08-24T16:29:07;1.20;;;1.00;;
75311;SDS011;63906;55.686;37.532;2023-08-24T16:34:08;1.65;;;1.20;;
75311;SDS011;63906;55.686;37.532;2023-08-24T16:39:08;2.00;;;1.20;;
75311;SDS011;63906;55.686;37.532;2023-08-24T16:44:09;1.40;;;1.10;;
75311;SDS011;63906;55.686;37.532;2023-08-24T16:49:09;1.15;;;0.90;;
75311;SDS011;63906;55.686;37.532;2023-08-24T16:54:10;1.53;;;1.10;;
75311;SDS011;63906;55.686;37.532;2023-08-24T16:59:10;1.67;;;1.00;;
75311;SDS011;63906;55.686;37.532;2023-08-24T17:04:11;1.90;;;1.37;;
75311;SDS011;63906;55.686;37.532;2023-08-24T17:09:11;1.52;;;1.20;;
75311;SDS011;63906;55.686;37.532;2023-08-24T17:14:12;1.33;;;0.85;;
75311;SDS011;63906;55.686;37.532;2023-08-24T17:19:13;1.27;;;1.17;;
75311;SDS011;63906;55.686;37.532;2023-08-24T17:24:13;1.30;;;1.00;;
75311;SDS011;63906;55.686;37.532;2023-08-24T17:29:14;2.00;;;1.10;;
75311;SDS011;63906;55.686;37.532;2023-08-24T17:34:14;1.58;;;1.13;;
75311;SDS011;63906;55.686;37.532;2023-08-24T17:39:15;1.10;;;0.90;;
75311;SDS011;63906;55.686;37.532;2023-08-24T17:44:15;1.75;;;1.27;;
75311;SDS011;63906;55.686;37.532;2023-08-24T17:49:16;1.83;;;1.17;;
75311;SDS011;63906;55.686;37.532;2023-08-24T17:54:16;1.92;;;1.30;;
75311;SDS011;63906;55.686;37.532;2023-08-24T17:59:17;2.30;;;1.38;;
75311;SDS011;63906;55.686;37.532;2023-08-24T18:04:18;2.88;;;1.02;;
75311;SDS011;63906;55.686;37.532;2023-08-24T18:09:19;1.70;;;1.20;;
75311;SDS011;63906;55.686;37.532;2023-08-24T18:14:19;1.25;;;1.00;;
75311;SDS011;63906;55.686;37.532;2023-08-24T18:19:20;1.97;;;1.30;;
75311;SDS011;63906;55.686;37.532;2023-08-24T18:24:20;1.37;;;1.10;;
75311;SDS011;63906;55.686;37.532;2023-08-24T18:29:21;1.55;;;0.80;;
75311;SDS011;63906;55.686;37.532;2023-08-24T18:34:22;1.83;;;1.40;;
75311;SDS011;63906;55.686;37.532;2023-08-24T18:39:24;1.33;;;1.10;;
75311;SDS011;63906;55.686;37.532;2023-08-24T18:44:25;0.80;;;0.70;;
75311;SDS011;63906;55.686;37.532;2023-08-24T18:49:25;1.20;;;0.97;;
75311;SDS011;63906;55.686;37.532;2023-08-24T18:54:26;0.93;;;0.70;;
75311;SDS011;63906;55.686;37.532;2023-08-24T18:59:29;1.17;;;0.95;;
75311;SDS011;63906;55.686;37.532;2023-08-24T19:04:29;1.23;;;0.90;;
75311;SDS011;63906;55.686;37.532;2023-08-24T19:09:30;1.60;;;0.83;;
75311;SDS011;63906;55.686;37.532;2023-08-24T19:14:30;1.60;;;0.98;;
75311;SDS011;63906;55.686;37.532;2023-08-24T19:19:34;1.00;;;0.80;;
75311;SDS011;63906;55.686;37.532;2023-08-24T19:24:35;0.98;;;0.75;;
75311;SDS011;63906;55.686;37.532;2023-08-24T19:29:35;1.45;;;1.00;;
75311;SDS011;63906;55.686;37.532;2023-08-24T19:34:36;1.23;;;0.88;;
75311;SDS011;63906;55.686;37.532;2023-08-24T19:39:37;1.30;;;0.90;;
75311;SDS011;63906;55.686;37.532;2023-08-24T19:44:37;1.03;;;0.63;;
75311;SDS011;63906;55.686;37.532;2023-08-24T19:49:38;1.10;;;0.90;;
75311;SDS011;63906;55.686;37.532;2023-08-24T19:54:39;1.23;;;0.88;;
75311;SDS011;63906;55.686;37.532;2023-08-24T19:59:40;1.37;;;1.10;;
75311;SDS011;63906;55.686;37.532;2023-08-24T20:04:40;1.67;;;0.88;;
75311;SDS011;63906;55.686;37.532;2023-08-24T20:09:41;1.33;;;0.80;;
75311;SDS011;63906;55.686;37.532;2023-08-24T20:14:41;1.08;;;0.80;;
75311;SDS011;63906;55.686;37.532;2023-08-24T20:19:43;1.15;;;0.82;;
75311;SDS011;63906;55.686;37.532;2023-08-24T20:24:45;1.80;;;0.98;;
75311;SDS011;63906;55.686;37.532;2023-08-24T20:29:46;1.23;;;0.80;;
75311;SDS011;63906;55.686;37.532;2023-08-24T20:34:46;1.60;;;1.00;;
75311;SDS011;63906;55.686;37.532;2023-08-24T20:39:47;1.52;;;0.70;;
75311;SDS011;63906;55.686;37.532;2023-08-24T20:44:47;1.13;;;0.73;;
75311;SDS011;63906;55.686;37.532;2023-08-24T20:49:55;1.20;;;1.10;;
75311;SDS011;63906;55.686;37.532;2023-08-24T20:54:55;1.30;;;0.95;;
75311;SDS011;63906;55.686;37.532;2023-08-24T20:59:56;1.73;;;1.40;;
75311;SDS011;63906;55.686;37.532;2023-08-24T21:04:56;1.20;;;0.90;;
75311;SDS011;63906;55.686;37.532;2023-08-24T21:09:57;1.48;;;1.10;;
75311;SDS011;63906;55.686;37.532;2023-08-24T21:14:57;1.63;;;1.27;;
75311;SDS011;63906;55.686;37.532;2023-08-24T21:19:58;2.85;;;1.30;;
75311;SDS011;63906;55.686;37.532;2023-08-24T21:24:58;2.43;;;1.50;;
75311;SDS011;63906;55.686;37.532;2023-08-24T21:35:04;1.20;;;0.98;;
75311;SDS011;63906;55.686;37.532;2023-08-24T21:40:05;1.02;;;0.88;;
75311;SDS011;63906;55.686;37.532;2023-08-24T21:45:06;1.60;;;1.30;;
75311;SDS011;63906;55.686;37.532;2023-08-24T21:50:07;1.30;;;1.10;;
75311;SDS011;63906;55.686;37.532;2023-08-24T21:55:07;1.58;;;1.15;;
75311;SDS011;63906;55.686;37.532;2023-08-24T22:00:09;1.85;;;1.20;;
75311;SDS011;63906;55.686;37.532;2023-08-24T22:05:13;2.65;;;1.67;;
75311;SDS011;63906;55.686;37.532;2023-08-24T22:10:14;1.70;;;1.40;;
75311;SDS011;63906;55.686;37.532;2023-08-24T22:15:15;1.50;;;1.35;;
75311;SDS011;63906;55.686;37.532;2023-08-24T22:20:15;2.42;;;1.42;;
75311;SDS011;63906;55.686;37.532;2023-08-24T22:25:17;1.85;;;1.40;;
75311;SDS011;63906;55.686;37.532;2023-08-24T22:30:18;1.63;;;1.30;;
75311;SDS011;63906;55.686;37.532;2023-08-24T22:35:19;2.10;;;1.70;;
75311;SDS011;63906;55.686;37.532;2023-08-24T22:40:20;1.85;;;1.50;;
75311;SDS011;63906;55.686;37.532;2023-08-24T22:45:22;1.52;;;1.38;;
75311;SDS011;63906;55.686;37.532;2023-08-24T22:50:23;1.65;;;1.40;;
75311;SDS011;63906;55.686;37.532;2023-08-24T22:55:24;1.23;;;1.00;;
75311;SDS011;63906;55.686;37.532;2023-08-24T23:00:24;1.53;;;1.17;;
75311;SDS011;63906;55.686;37.532;2023-08-24T23:05:25;2.42;;;1.50;;
75311;SDS011;63906;55.686;37.532;2023-08-24T23:10:26;1.98;;;1.33;;
75311;SDS011;63906;55.686;37.532;2023-08-24T23:15:27;1.55;;;1.30;;
75311;SDS011;63906;55.686;37.532;2023-08-24T23:20:27;1.83;;;1.33;;
75311;SDS011;63906;55.686;37.532;2023-08-24T23:25:28;1.35;;;1.25;;
75311;SDS011;63906;55.686;37.532;2023-08-24T23:30:28;1.40;;;1.10;;
75311;SDS011;63906;55.686;37.532;2023-08-24T23:35:29;1.48;;;1.13;;
75311;SDS011;63906;55.686;37.532;2023-08-24T23:40:30;1.92;;;1.40;;
75311;SDS011;63906;55.686;37.532;2023-08-24T23:45:31;1.90;;;1.70;;
75311;SDS011;63906;55.686;37.532;2023-08-24T23:50:32;1.67;;;1.50;;
75311;SDS011;63906;55.686;37.532;2023-08-24T23:55:33;1.80;;;1.47;;
